sensor_id;sensor_type;location;lat;lon;timestamp;temperature;humidity
41481;DHT22;27217;51.220;5.308;2022-12-07T00:00:49;5.70;99.90
41481;DHT22;27217;51.220;5.308;2022-12-07T00:03:15;5.40;99.90
41481;DHT22;27217;51.220;5.308;2022-12-07T00:05:40;5.80;99.90
41481;DHT22;27217;51.220;5.308;2022-12-07T00:08:06;5.90;99.90
41481;DHT22;27217;51.220;5.308;2022-12-07T00:10:35;5.60;99.90
41481;DHT22;27217;51.220;5.308;2022-12-07T00:13:01;5.70;99.90
41481;DHT22;27217;51.220;5.308;2022-12-07T00:15:27;5.50;99.90
41481;DHT22;27217;51.220;5.308;2022-12-07T00:17:53;5.50;99.90
41481;DHT22;27217;51.220;5.308;2022-12-07T00:20:19;5.40;99.90
41481;DHT22;27217;51.220;5.308;2022-12-07T00:22:45;5.40;99.90
41481;DHT22;27217;51.220;5.308;2022-12-07T00:25:10;5.30;99.90
41481;DHT22;27217;51.220;5.308;2022-12-07T00:27:36;5.30;99.90
41481;DHT22;27217;51.220;5.308;2022-12-07T00:30:02;5.50;99.90
41481;DHT22;27217;51.220;5.308;2022-12-07T00:32:28;5.80;99.90
41481;DHT22;27217;51.220;5.308;2022-12-07T00:34:54;5.90;99.90
41481;DHT22;27217;51.220;5.308;2022-12-07T00:37:20;5.80;99.90
41481;DHT22;27217;51.220;5.308;2022-12-07T00:39:46;5.80;99.90
41481;DHT22;27217;51.220;5.308;2022-12-07T00:42:12;5.80;99.90
41481;DHT22;27217;51.220;5.308;2022-12-07T00:44:37;5.70;99.90
41481;DHT22;27217;51.220;5.308;2022-12-07T00:47:04;5.50;99.90
41481;DHT22;27217;51.220;5.308;2022-12-07T00:49:30;5.60;99.90
41481;DHT22;27217;51.220;5.308;2022-12-07T00:51:55;5.60;99.90
41481;DHT22;27217;51.220;5.308;2022-12-07T00:54:21;5.70;99.90
41481;DHT22;27217;51.220;5.308;2022-12-07T00:56:47;5.60;99.90
41481;DHT22;27217;51.220;5.308;2022-12-07T00:59:14;5.70;99.90
41481;DHT22;27217;51.220;5.308;2022-12-07T01:01:42;5.70;99.90
41481;DHT22;27217;51.220;5.308;2022-12-07T01:04:08;5.50;99.90
41481;DHT22;27217;51.220;5.308;2022-12-07T01:06:34;5.50;99.90
41481;DHT22;27217;51.220;5.308;2022-12-07T01:09:00;5.40;99.90
41481;DHT22;27217;51.220;5.308;2022-12-07T01:11:28;5.10;99.90
41481;DHT22;27217;51.220;5.308;2022-12-07T01:13:56;5.30;99.90
41481;DHT22;27217;51.220;5.308;2022-12-07T01:16:25;5.30;99.90
41481;DHT22;27217;51.220;5.308;2022-12-07T01:18:52;5.10;99.90
41481;DHT22;27217;51.220;5.308;2022-12-07T01:21:19;5.10;99.90
41481;DHT22;27217;51.220;5.308;2022-12-07T01:23:49;5.40;99.90
41481;DHT22;27217;51.220;5.308;2022-12-07T01:26:17;5.30;99.90
41481;DHT22;27217;51.220;5.308;2022-12-07T01:28:44;5.40;99.90
41481;DHT22;27217;51.220;5.308;2022-12-07T01:31:13;5.40;99.90
41481;DHT22;27217;51.220;5.308;2022-12-07T01:33:41;5.50;99.90
41481;DHT22;27217;51.220;5.308;2022-12-07T01:36:16;5.30;99.90
41481;DHT22;27217;51.220;5.308;2022-12-07T01:38:43;5.20;99.90
41481;DHT22;27217;51.220;5.308;2022-12-07T01:41:09;5.00;99.90
41481;DHT22;27217;51.220;5.308;2022-12-07T01:43:35;5.10;99.90
41481;DHT22;27217;51.220;5.308;2022-12-07T01:46:03;5.20;99.90
41481;DHT22;27217;51.220;5.308;2022-12-07T01:48:39;5.30;99.90
41481;DHT22;27217;51.220;5.308;2022-12-07T01:51:11;5.40;99.90
41481;DHT22;27217;51.220;5.308;2022-12-07T01:53:41;5.20;99.90
41481;DHT22;27217;51.220;5.308;2022-12-07T01:56:12;5.60;99.90
41481;DHT22;27217;51.220;5.308;2022-12-07T01:58:41;5.70;99.90
41481;DHT22;27217;51.220;5.308;2022-12-07T02:01:07;5.70;99.90
41481;DHT22;27217;51.220;5.308;2022-12-07T02:03:39;5.70;99.90
41481;DHT22;27217;51.220;5.308;2022-12-07T02:06:06;5.50;99.90
41481;DHT22;27217;51.220;5.308;2022-12-07T02:08:33;5.50;99.90
41481;DHT22;27217;51.220;5.308;2022-12-07T02:11:01;5.50;99.90
41481;DHT22;27217;51.220;5.308;2022-12-07T02:13:31;5.40;99.90
41481;DHT22;27217;51.220;5.308;2022-12-07T02:21:51;5.60;99.90
41481;DHT22;27217;51.220;5.308;2022-12-07T02:43:23;4.90;99.90
41481;DHT22;27217;51.220;5.308;2022-12-07T02:45:52;5.10;99.90
41481;DHT22;27217;51.220;5.308;2022-12-07T02:48:19;5.40;99.90
41481;DHT22;27217;51.220;5.308;2022-12-07T02:50:51;5.30;99.90
41481;DHT22;27217;51.220;5.308;2022-12-07T02:53:34;5.50;99.90
41481;DHT22;27217;51.220;5.308;2022-12-07T02:56:52;5.50;99.90
41481;DHT22;27217;51.220;5.308;2022-12-07T03:04:36;5.30;99.90
41481;DHT22;27217;51.220;5.308;2022-12-07T03:07:27;5.30;99.90
41481;DHT22;27217;51.220;5.308;2022-12-07T03:10:27;5.60;99.90
41481;DHT22;27217;51.220;5.308;2022-12-07T03:13:05;5.50;99.90
41481;DHT22;27217;51.220;5.308;2022-12-07T03:18:19;5.70;99.90
41481;DHT22;27217;51.220;5.308;2022-12-07T03:20:48;5.70;99.90
41481;DHT22;27217;51.220;5.308;2022-12-07T03:23:17;5.50;99.90
41481;DHT22;27217;51.220;5.308;2022-12-07T03:25:48;5.30;99.90
41481;DHT22;27217;51.220;5.308;2022-12-07T03:28:18;5.40;99.90
41481;DHT22;27217;51.220;5.308;2022-12-07T03:30:52;5.50;99.90
41481;DHT22;27217;51.220;5.308;2022-12-07T03:33:49;5.50;99.90
41481;DHT22;27217;51.220;5.308;2022-12-07T03:39:22;5.30;99.90
41481;DHT22;27217;51.220;5.308;2022-12-07T03:41:51;5.20;99.90
41481;DHT22;27217;51.220;5.308;2022-12-07T03:44:18;5.10;99.90
41481;DHT22;27217;51.220;5.308;2022-12-07T03:49:31;5.00;99.90
41481;DHT22;27217;51.220;5.308;2022-12-07T03:57:47;5.40;99.90
41481;DHT22;27217;51.220;5.308;2022-12-07T04:00:14;5.60;99.90
41481;DHT22;27217;51.220;5.308;2022-12-07T04:02:41;5.80;99.90
41481;DHT22;27217;51.220;5.308;2022-12-07T04:05:07;5.90;99.90
41481;DHT22;27217;51.220;5.308;2022-12-07T04:07:34;5.90;99.90
41481;DHT22;27217;51.220;5.308;2022-12-07T04:10:00;6.00;99.90
41481;DHT22;27217;51.220;5.308;2022-12-07T04:12:25;5.70;99.90
41481;DHT22;27217;51.220;5.308;2022-12-07T04:15:04;5.80;99.90
41481;DHT22;27217;51.220;5.308;2022-12-07T04:17:30;5.60;99.90
41481;DHT22;27217;51.220;5.308;2022-12-07T04:19:56;5.90;99.90
41481;DHT22;27217;51.220;5.308;2022-12-07T04:22:22;5.50;99.90
41481;DHT22;27217;51.220;5.308;2022-12-07T04:24:48;5.50;99.90
41481;DHT22;27217;51.220;5.308;2022-12-07T04:27:14;5.70;99.90
41481;DHT22;27217;51.220;5.308;2022-12-07T04:29:40;5.50;99.90
41481;DHT22;27217;51.220;5.308;2022-12-07T04:32:06;5.50;99.90
41481;DHT22;27217;51.220;5.308;2022-12-07T04:34:32;5.50;99.90
41481;DHT22;27217;51.220;5.308;2022-12-07T04:36:58;5.40;99.90
41481;DHT22;27217;51.220;5.308;2022-12-07T04:39:32;5.60;99.90
41481;DHT22;27217;51.220;5.308;2022-12-07T04:41:59;5.50;99.90
41481;DHT22;27217;51.220;5.308;2022-12-07T04:44:25;5.30;99.90
41481;DHT22;27217;51.220;5.308;2022-12-07T04:46:53;5.30;99.90
41481;DHT22;27217;51.220;5.308;2022-12-07T04:49:19;5.50;99.90
41481;DHT22;27217;51.220;5.308;2022-12-07T04:51:46;5.60;99.90
41481;DHT22;27217;51.220;5.308;2022-12-07T04:54:13;5.40;99.90
41481;DHT22;27217;51.220;5.308;2022-12-07T04:56:39;5.50;99.90
41481;DHT22;27217;51.220;5.308;2022-12-07T04:59:05;5.50;99.90
41481;DHT22;27217;51.220;5.308;2022-12-07T05:01:32;5.60;99.90
41481;DHT22;27217;51.220;5.308;2022-12-07T05:03:58;5.40;99.90
41481;DHT22;27217;51.220;5.308;2022-12-07T05:06:25;5.10;99.90
41481;DHT22;27217;51.220;5.308;2022-12-07T05:08:52;5.00;99.90
41481;DHT22;27217;51.220;5.308;2022-12-07T05:11:18;5.00;99.90
41481;DHT22;27217;51.220;5.308;2022-12-07T05:14:04;5.10;99.90
41481;DHT22;27217;51.220;5.308;2022-12-07T05:16:31;5.50;99.90
41481;DHT22;27217;51.220;5.308;2022-12-07T05:18:57;5.50;99.90
41481;DHT22;27217;51.220;5.308;2022-12-07T05:21:23;5.40;99.90
41481;DHT22;27217;51.220;5.308;2022-12-07T05:23:49;5.30;99.90
41481;DHT22;27217;51.220;5.308;2022-12-07T05:26:15;5.30;99.90
41481;DHT22;27217;51.220;5.308;2022-12-07T05:28:41;5.20;99.90
41481;DHT22;27217;51.220;5.308;2022-12-07T05:31:06;5.40;99.90
41481;DHT22;27217;51.220;5.308;2022-12-07T05:33:32;5.30;99.90
41481;DHT22;27217;51.220;5.308;2022-12-07T05:35:58;5.20;99.90
41481;DHT22;27217;51.220;5.308;2022-12-07T05:38:24;5.30;99.90
41481;DHT22;27217;51.220;5.308;2022-12-07T05:40:50;5.40;99.90
41481;DHT22;27217;51.220;5.308;2022-12-07T05:43:17;5.40;99.90
41481;DHT22;27217;51.220;5.308;2022-12-07T05:45:42;5.40;99.90
41481;DHT22;27217;51.220;5.308;2022-12-07T05:48:08;5.20;99.90
41481;DHT22;27217;51.220;5.308;2022-12-07T05:50:34;5.20;99.90
41481;DHT22;27217;51.220;5.308;2022-12-07T05:53:00;5.40;99.90
41481;DHT22;27217;51.220;5.308;2022-12-07T05:55:26;5.50;99.90
41481;DHT22;27217;51.220;5.308;2022-12-07T05:57:52;5.70;99.90
41481;DHT22;27217;51.220;5.308;2022-12-07T06:00:37;5.80;99.90
41481;DHT22;27217;51.220;5.308;2022-12-07T06:03:03;5.90;99.90
41481;DHT22;27217;51.220;5.308;2022-12-07T06:05:29;5.60;99.90
41481;DHT22;27217;51.220;5.308;2022-12-07T06:07:55;5.50;99.90
41481;DHT22;27217;51.220;5.308;2022-12-07T06:10:20;5.70;99.90
41481;DHT22;27217;51.220;5.308;2022-12-07T06:12:47;5.80;99.90
41481;DHT22;27217;51.220;5.308;2022-12-07T06:15:13;5.60;99.90
41481;DHT22;27217;51.220;5.308;2022-12-07T06:17:39;5.60;99.90
41481;DHT22;27217;51.220;5.308;2022-12-07T06:20:05;5.60;99.90
41481;DHT22;27217;51.220;5.308;2022-12-07T06:22:32;6.00;99.90
41481;DHT22;27217;51.220;5.308;2022-12-07T06:24:58;5.80;99.90
41481;DHT22;27217;51.220;5.308;2022-12-07T06:27:24;5.50;99.90
41481;DHT22;27217;51.220;5.308;2022-12-07T06:29:50;5.10;99.90
41481;DHT22;27217;51.220;5.308;2022-12-07T06:32:16;5.40;99.90
41481;DHT22;27217;51.220;5.308;2022-12-07T06:34:43;5.40;99.90
41481;DHT22;27217;51.220;5.308;2022-12-07T06:37:09;5.10;99.90
41481;DHT22;27217;51.220;5.308;2022-12-07T06:39:35;5.30;99.90
41481;DHT22;27217;51.220;5.308;2022-12-07T06:42:01;5.30;99.90
41481;DHT22;27217;51.220;5.308;2022-12-07T06:44:27;5.00;99.90
41481;DHT22;27217;51.220;5.308;2022-12-07T06:46:53;5.00;99.90
41481;DHT22;27217;51.220;5.308;2022-12-07T06:49:19;4.80;99.90
41481;DHT22;27217;51.220;5.308;2022-12-07T06:51:45;4.90;99.90
41481;DHT22;27217;51.220;5.308;2022-12-07T06:54:12;4.50;99.90
41481;DHT22;27217;51.220;5.308;2022-12-07T06:56:38;4.80;99.90
41481;DHT22;27217;51.220;5.308;2022-12-07T06:59:05;4.60;99.90
41481;DHT22;27217;51.220;5.308;2022-12-07T07:01:32;4.20;99.90
41481;DHT22;27217;51.220;5.308;2022-12-07T07:03:58;4.40;99.90
41481;DHT22;27217;51.220;5.308;2022-12-07T07:06:24;4.50;99.90
41481;DHT22;27217;51.220;5.308;2022-12-07T07:08:49;4.70;99.90
41481;DHT22;27217;51.220;5.308;2022-12-07T07:11:15;4.70;99.90
41481;DHT22;27217;51.220;5.308;2022-12-07T07:13:41;4.60;99.90
41481;DHT22;27217;51.220;5.308;2022-12-07T07:16:08;4.70;99.90
41481;DHT22;27217;51.220;5.308;2022-12-07T07:18:34;4.30;99.90
41481;DHT22;27217;51.220;5.308;2022-12-07T07:21:00;3.90;99.90
41481;DHT22;27217;51.220;5.308;2022-12-07T07:23:26;4.20;99.90
41481;DHT22;27217;51.220;5.308;2022-12-07T07:25:52;3.70;99.90
41481;DHT22;27217;51.220;5.308;2022-12-07T07:28:18;4.00;99.90
41481;DHT22;27217;51.220;5.308;2022-12-07T07:30:44;4.20;99.90
41481;DHT22;27217;51.220;5.308;2022-12-07T07:33:10;3.80;99.90
41481;DHT22;27217;51.220;5.308;2022-12-07T07:35:37;3.70;99.90
41481;DHT22;27217;51.220;5.308;2022-12-07T07:38:06;3.70;99.90
41481;DHT22;27217;51.220;5.308;2022-12-07T07:40:32;4.00;99.90
41481;DHT22;27217;51.220;5.308;2022-12-07T07:42:58;4.30;99.90
41481;DHT22;27217;51.220;5.308;2022-12-07T07:45:25;4.20;99.90
41481;DHT22;27217;51.220;5.308;2022-12-07T07:47:51;4.20;99.90
41481;DHT22;27217;51.220;5.308;2022-12-07T07:50:18;4.30;99.90
41481;DHT22;27217;51.220;5.308;2022-12-07T07:52:44;4.50;99.90
41481;DHT22;27217;51.220;5.308;2022-12-07T07:55:10;4.40;99.90
41481;DHT22;27217;51.220;5.308;2022-12-07T07:57:37;4.20;99.90
41481;DHT22;27217;51.220;5.308;2022-12-07T08:00:05;4.40;99.90
41481;DHT22;27217;51.220;5.308;2022-12-07T08:02:32;4.50;99.90
41481;DHT22;27217;51.220;5.308;2022-12-07T08:04:58;4.40;99.90
41481;DHT22;27217;51.220;5.308;2022-12-07T08:07:24;4.20;99.90
41481;DHT22;27217;51.220;5.308;2022-12-07T08:09:49;4.00;99.90
41481;DHT22;27217;51.220;5.308;2022-12-07T08:12:15;4.20;99.90
41481;DHT22;27217;51.220;5.308;2022-12-07T08:14:41;4.40;99.90
41481;DHT22;27217;51.220;5.308;2022-12-07T08:17:06;4.50;99.90
41481;DHT22;27217;51.220;5.308;2022-12-07T08:19:35;4.50;99.90
41481;DHT22;27217;51.220;5.308;2022-12-07T08:22:02;4.70;99.90
41481;DHT22;27217;51.220;5.308;2022-12-07T08:24:33;4.80;99.90
41481;DHT22;27217;51.220;5.308;2022-12-07T08:26:59;4.80;99.90
41481;DHT22;27217;51.220;5.308;2022-12-07T08:29:25;4.70;99.90
41481;DHT22;27217;51.220;5.308;2022-12-07T08:31:51;4.50;99.90
41481;DHT22;27217;51.220;5.308;2022-12-07T08:34:16;4.30;99.90
41481;DHT22;27217;51.220;5.308;2022-12-07T08:36:42;4.30;99.90
41481;DHT22;27217;51.220;5.308;2022-12-07T08:39:08;4.40;99.90
41481;DHT22;27217;51.220;5.308;2022-12-07T08:41:34;4.60;99.90
41481;DHT22;27217;51.220;5.308;2022-12-07T08:44:00;5.00;99.90
41481;DHT22;27217;51.220;5.308;2022-12-07T08:49:11;4.50;99.90
41481;DHT22;27217;51.220;5.308;2022-12-07T08:51:38;4.50;99.90
41481;DHT22;27217;51.220;5.308;2022-12-07T08:54:07;4.70;99.90
41481;DHT22;27217;51.220;5.308;2022-12-07T08:56:37;4.60;99.90
41481;DHT22;27217;51.220;5.308;2022-12-07T08:59:04;4.70;99.90
41481;DHT22;27217;51.220;5.308;2022-12-07T09:01:33;4.90;99.90
41481;DHT22;27217;51.220;5.308;2022-12-07T09:04:00;4.70;99.90
41481;DHT22;27217;51.220;5.308;2022-12-07T09:06:26;4.60;99.90
41481;DHT22;27217;51.220;5.308;2022-12-07T09:08:57;4.50;99.90
41481;DHT22;27217;51.220;5.308;2022-12-07T09:11:23;4.60;99.90
41481;DHT22;27217;51.220;5.308;2022-12-07T09:13:49;4.60;99.90
41481;DHT22;27217;51.220;5.308;2022-12-07T09:16:15;5.20;99.90
41481;DHT22;27217;51.220;5.308;2022-12-07T09:18:42;5.50;99.90
41481;DHT22;27217;51.220;5.308;2022-12-07T09:21:08;5.40;99.90
41481;DHT22;27217;51.220;5.308;2022-12-07T09:23:33;5.60;99.90
41481;DHT22;27217;51.220;5.308;2022-12-07T09:26:00;5.60;99.90
41481;DHT22;27217;51.220;5.308;2022-12-07T09:28:26;5.70;99.90
41481;DHT22;27217;51.220;5.308;2022-12-07T09:30:52;5.70;99.90
41481;DHT22;27217;51.220;5.308;2022-12-07T09:33:18;5.80;99.90
41481;DHT22;27217;51.220;5.308;2022-12-07T09:35:48;5.70;99.90
41481;DHT22;27217;51.220;5.308;2022-12-07T09:38:15;5.90;99.90
41481;DHT22;27217;51.220;5.308;2022-12-07T09:40:41;6.00;99.90
41481;DHT22;27217;51.220;5.308;2022-12-07T09:43:18;6.00;99.90
41481;DHT22;27217;51.220;5.308;2022-12-07T09:45:45;5.90;99.90
41481;DHT22;27217;51.220;5.308;2022-12-07T09:48:21;6.00;99.90
41481;DHT22;27217;51.220;5.308;2022-12-07T09:50:49;5.70;99.90
41481;DHT22;27217;51.220;5.308;2022-12-07T09:53:37;5.70;99.90
41481;DHT22;27217;51.220;5.308;2022-12-07T09:56:03;6.00;99.90
41481;DHT22;27217;51.220;5.308;2022-12-07T09:58:31;5.90;99.90
41481;DHT22;27217;51.220;5.308;2022-12-07T10:00:59;5.90;99.90
41481;DHT22;27217;51.220;5.308;2022-12-07T10:03:29;6.20;99.90
41481;DHT22;27217;51.220;5.308;2022-12-07T10:05:55;6.00;99.90
41481;DHT22;27217;51.220;5.308;2022-12-07T10:08:22;6.00;99.90
41481;DHT22;27217;51.220;5.308;2022-12-07T10:10:54;6.10;99.90
41481;DHT22;27217;51.220;5.308;2022-12-07T10:13:36;6.20;99.90
41481;DHT22;27217;51.220;5.308;2022-12-07T10:16:03;6.60;99.90
41481;DHT22;27217;51.220;5.308;2022-12-07T10:18:41;6.80;99.90
41481;DHT22;27217;51.220;5.308;2022-12-07T10:21:20;6.90;99.90
41481;DHT22;27217;51.220;5.308;2022-12-07T10:24:24;6.80;99.90
41481;DHT22;27217;51.220;5.308;2022-12-07T10:26:52;6.70;99.90
41481;DHT22;27217;51.220;5.308;2022-12-07T10:29:19;6.50;99.90
41481;DHT22;27217;51.220;5.308;2022-12-07T10:32:00;6.60;99.90
41481;DHT22;27217;51.220;5.308;2022-12-07T10:34:30;6.60;99.90
41481;DHT22;27217;51.220;5.308;2022-12-07T10:42:22;6.80;99.90
41481;DHT22;27217;51.220;5.308;2022-12-07T10:45:06;7.10;99.90
41481;DHT22;27217;51.220;5.308;2022-12-07T10:47:42;7.70;99.90
41481;DHT22;27217;51.220;5.308;2022-12-07T10:55:26;9.40;99.90
41481;DHT22;27217;51.220;5.308;2022-12-07T11:12:54;8.10;99.90
41481;DHT22;27217;51.220;5.308;2022-12-07T11:21:05;8.20;99.90
41481;DHT22;27217;51.220;5.308;2022-12-07T11:26:20;9.80;99.90
41481;DHT22;27217;51.220;5.308;2022-12-07T11:29:10;10.20;99.90
41481;DHT22;27217;51.220;5.308;2022-12-07T11:36:54;10.00;99.90
41481;DHT22;27217;51.220;5.308;2022-12-07T11:41:49;9.00;99.90
41481;DHT22;27217;51.220;5.308;2022-12-07T11:44:33;9.00;99.90
41481;DHT22;27217;51.220;5.308;2022-12-07T11:47:17;8.60;99.90
41481;DHT22;27217;51.220;5.308;2022-12-07T11:52:53;7.60;99.90
41481;DHT22;27217;51.220;5.308;2022-12-07T12:01:36;8.20;99.90
41481;DHT22;27217;51.220;5.308;2022-12-07T12:06:35;7.70;99.90
41481;DHT22;27217;51.220;5.308;2022-12-07T12:23:16;7.90;99.90
41481;DHT22;27217;51.220;5.308;2022-12-07T12:25:57;8.10;99.90
41481;DHT22;27217;51.220;5.308;2022-12-07T12:28:39;7.90;99.90
41481;DHT22;27217;51.220;5.308;2022-12-07T12:33:57;7.30;99.90
41481;DHT22;27217;51.220;5.308;2022-12-07T12:39:17;7.50;99.90
41481;DHT22;27217;51.220;5.308;2022-12-07T12:51:49;7.60;99.90
41481;DHT22;27217;51.220;5.308;2022-12-07T12:54:27;7.70;99.90
41481;DHT22;27217;51.220;5.308;2022-12-07T13:15:53;8.60;99.90
41481;DHT22;27217;51.220;5.308;2022-12-07T13:20:59;9.30;99.90
41481;DHT22;27217;51.220;5.308;2022-12-07T13:29:17;7.60;99.90
41481;DHT22;27217;51.220;5.308;2022-12-07T13:31:47;7.50;99.90
41481;DHT22;27217;51.220;5.308;2022-12-07T13:34:35;7.50;99.90
41481;DHT22;27217;51.220;5.308;2022-12-07T13:37:09;7.40;99.90
41481;DHT22;27217;51.220;5.308;2022-12-07T13:39:44;7.80;99.90
41481;DHT22;27217;51.220;5.308;2022-12-07T13:42:28;8.20;99.90
41481;DHT22;27217;51.220;5.308;2022-12-07T13:44:55;8.60;99.90
41481;DHT22;27217;51.220;5.308;2022-12-07T13:47:48;8.60;99.90
41481;DHT22;27217;51.220;5.308;2022-12-07T13:50:29;8.30;99.90
41481;DHT22;27217;51.220;5.308;2022-12-07T13:53:00;8.40;99.90
41481;DHT22;27217;51.220;5.308;2022-12-07T13:55:26;8.40;99.90
41481;DHT22;27217;51.220;5.308;2022-12-07T13:57:54;8.80;99.90
41481;DHT22;27217;51.220;5.308;2022-12-07T14:00:24;9.20;99.90
41481;DHT22;27217;51.220;5.308;2022-12-07T14:05:41;8.20;99.90
41481;DHT22;27217;51.220;5.308;2022-12-07T14:13:26;7.60;99.90
41481;DHT22;27217;51.220;5.308;2022-12-07T14:15:53;7.50;99.90
41481;DHT22;27217;51.220;5.308;2022-12-07T14:23:38;7.40;99.90
41481;DHT22;27217;51.220;5.308;2022-12-07T14:26:12;7.60;99.90
41481;DHT22;27217;51.220;5.308;2022-12-07T14:28:43;7.50;99.90
41481;DHT22;27217;51.220;5.308;2022-12-07T14:31:14;7.50;99.90
41481;DHT22;27217;51.220;5.308;2022-12-07T14:33:40;7.80;99.90
41481;DHT22;27217;51.220;5.308;2022-12-07T14:36:11;8.10;99.90
41481;DHT22;27217;51.220;5.308;2022-12-07T14:38:38;8.10;99.90
41481;DHT22;27217;51.220;5.308;2022-12-07T14:41:04;8.10;99.90
41481;DHT22;27217;51.220;5.308;2022-12-07T14:43:50;7.90;99.90
41481;DHT22;27217;51.220;5.308;2022-12-07T14:46:16;7.60;99.90
41481;DHT22;27217;51.220;5.308;2022-12-07T14:48:41;7.80;99.90
41481;DHT22;27217;51.220;5.308;2022-12-07T14:51:08;7.80;99.90
41481;DHT22;27217;51.220;5.308;2022-12-07T14:53:44;8.20;99.90
41481;DHT22;27217;51.220;5.308;2022-12-07T14:56:11;7.90;99.90
41481;DHT22;27217;51.220;5.308;2022-12-07T14:58:37;8.00;99.90
41481;DHT22;27217;51.220;5.308;2022-12-07T15:01:03;7.80;99.90
41481;DHT22;27217;51.220;5.308;2022-12-07T15:03:30;7.40;99.90
41481;DHT22;27217;51.220;5.308;2022-12-07T15:05:56;7.40;99.90
41481;DHT22;27217;51.220;5.308;2022-12-07T15:08:22;7.60;99.90
41481;DHT22;27217;51.220;5.308;2022-12-07T15:10:48;7.50;99.90
41481;DHT22;27217;51.220;5.308;2022-12-07T15:13:14;7.20;99.90
41481;DHT22;27217;51.220;5.308;2022-12-07T15:15:58;7.20;99.90
41481;DHT22;27217;51.220;5.308;2022-12-07T15:18:25;7.30;99.90
41481;DHT22;27217;51.220;5.308;2022-12-07T15:20:51;7.30;99.90
41481;DHT22;27217;51.220;5.308;2022-12-07T15:23:17;7.00;99.90
41481;DHT22;27217;51.220;5.308;2022-12-07T15:25:45;7.40;99.90
41481;DHT22;27217;51.220;5.308;2022-12-07T15:28:11;7.50;99.90
41481;DHT22;27217;51.220;5.308;2022-12-07T15:30:38;7.80;99.90
41481;DHT22;27217;51.220;5.308;2022-12-07T15:33:04;7.60;99.90
41481;DHT22;27217;51.220;5.308;2022-12-07T15:35:34;7.20;99.90
41481;DHT22;27217;51.220;5.308;2022-12-07T15:38:03;6.90;99.90
41481;DHT22;27217;51.220;5.308;2022-12-07T15:40:29;6.80;99.90
41481;DHT22;27217;51.220;5.308;2022-12-07T15:42:55;7.00;99.90
41481;DHT22;27217;51.220;5.308;2022-12-07T15:45:21;6.70;99.90
41481;DHT22;27217;51.220;5.308;2022-12-07T15:47:47;6.60;99.90
41481;DHT22;27217;51.220;5.308;2022-12-07T15:50:15;6.60;99.90
41481;DHT22;27217;51.220;5.308;2022-12-07T15:52:42;6.70;99.90
41481;DHT22;27217;51.220;5.308;2022-12-07T15:55:09;6.30;99.90
41481;DHT22;27217;51.220;5.308;2022-12-07T15:57:36;6.40;99.90
41481;DHT22;27217;51.220;5.308;2022-12-07T16:00:04;6.60;99.90
41481;DHT22;27217;51.220;5.308;2022-12-07T16:02:30;6.20;99.90
41481;DHT22;27217;51.220;5.308;2022-12-07T16:04:55;6.30;99.90
41481;DHT22;27217;51.220;5.308;2022-12-07T16:07:22;5.90;99.90
41481;DHT22;27217;51.220;5.308;2022-12-07T16:09:48;6.00;99.90
41481;DHT22;27217;51.220;5.308;2022-12-07T16:12:15;6.00;99.90
41481;DHT22;27217;51.220;5.308;2022-12-07T16:14:41;6.10;99.90
41481;DHT22;27217;51.220;5.308;2022-12-07T16:17:08;6.30;99.90
41481;DHT22;27217;51.220;5.308;2022-12-07T16:19:36;6.30;99.90
41481;DHT22;27217;51.220;5.308;2022-12-07T16:22:03;5.80;99.90
41481;DHT22;27217;51.220;5.308;2022-12-07T16:24:30;5.80;99.90
41481;DHT22;27217;51.220;5.308;2022-12-07T16:26:56;6.00;99.90
41481;DHT22;27217;51.220;5.308;2022-12-07T16:29:23;6.10;99.90
41481;DHT22;27217;51.220;5.308;2022-12-07T16:31:50;6.10;99.90
41481;DHT22;27217;51.220;5.308;2022-12-07T16:34:17;6.50;99.90
41481;DHT22;27217;51.220;5.308;2022-12-07T16:36:43;6.40;99.90
41481;DHT22;27217;51.220;5.308;2022-12-07T16:39:09;6.00;99.90
41481;DHT22;27217;51.220;5.308;2022-12-07T16:41:35;5.90;99.90
41481;DHT22;27217;51.220;5.308;2022-12-07T16:44:04;6.00;99.90
41481;DHT22;27217;51.220;5.308;2022-12-07T16:46:32;5.80;99.90
41481;DHT22;27217;51.220;5.308;2022-12-07T16:48:58;5.90;99.90
41481;DHT22;27217;51.220;5.308;2022-12-07T16:51:24;6.00;99.90
41481;DHT22;27217;51.220;5.308;2022-12-07T16:53:52;5.90;99.90
41481;DHT22;27217;51.220;5.308;2022-12-07T16:56:19;6.00;99.90
41481;DHT22;27217;51.220;5.308;2022-12-07T16:58:45;6.00;99.90
41481;DHT22;27217;51.220;5.308;2022-12-07T17:01:15;6.10;99.90
41481;DHT22;27217;51.220;5.308;2022-12-07T17:03:42;6.00;99.90
41481;DHT22;27217;51.220;5.308;2022-12-07T17:06:27;6.00;99.90
41481;DHT22;27217;51.220;5.308;2022-12-07T17:08:54;6.10;99.90
41481;DHT22;27217;51.220;5.308;2022-12-07T17:11:24;6.00;99.90
41481;DHT22;27217;51.220;5.308;2022-12-07T17:13:50;5.90;99.90
41481;DHT22;27217;51.220;5.308;2022-12-07T17:16:35;5.90;99.90
41481;DHT22;27217;51.220;5.308;2022-12-07T17:19:08;5.60;99.90
41481;DHT22;27217;51.220;5.308;2022-12-07T17:21:35;5.60;99.90
41481;DHT22;27217;51.220;5.308;2022-12-07T17:24:02;5.50;99.90
41481;DHT22;27217;51.220;5.308;2022-12-07T17:26:29;5.90;99.90
41481;DHT22;27217;51.220;5.308;2022-12-07T17:28:55;6.00;99.90
41481;DHT22;27217;51.220;5.308;2022-12-07T17:31:22;5.70;99.90
41481;DHT22;27217;51.220;5.308;2022-12-07T17:33:51;5.70;99.90
41481;DHT22;27217;51.220;5.308;2022-12-07T17:36:19;5.60;99.90
41481;DHT22;27217;51.220;5.308;2022-12-07T17:38:46;5.40;99.90
41481;DHT22;27217;51.220;5.308;2022-12-07T17:41:15;5.40;99.90
41481;DHT22;27217;51.220;5.308;2022-12-07T17:44:01;5.40;99.90
41481;DHT22;27217;51.220;5.308;2022-12-07T17:46:27;5.60;99.90
41481;DHT22;27217;51.220;5.308;2022-12-07T17:48:54;5.60;99.90
41481;DHT22;27217;51.220;5.308;2022-12-07T17:51:20;5.40;99.90
41481;DHT22;27217;51.220;5.308;2022-12-07T17:54:05;5.40;99.90
41481;DHT22;27217;51.220;5.308;2022-12-07T17:56:32;5.30;99.90
41481;DHT22;27217;51.220;5.308;2022-12-07T17:58:57;5.50;99.90
41481;DHT22;27217;51.220;5.308;2022-12-07T18:01:24;5.50;99.90
41481;DHT22;27217;51.220;5.308;2022-12-07T18:03:50;5.60;99.90
41481;DHT22;27217;51.220;5.308;2022-12-07T18:06:16;5.60;99.90
41481;DHT22;27217;51.220;5.308;2022-12-07T18:08:42;5.70;99.90
41481;DHT22;27217;51.220;5.308;2022-12-07T18:11:12;5.70;99.90
41481;DHT22;27217;51.220;5.308;2022-12-07T18:13:38;5.50;99.90
41481;DHT22;27217;51.220;5.308;2022-12-07T18:16:10;5.20;99.90
41481;DHT22;27217;51.220;5.308;2022-12-07T18:18:37;5.20;99.90
41481;DHT22;27217;51.220;5.308;2022-12-07T18:21:04;5.20;99.90
41481;DHT22;27217;51.220;5.308;2022-12-07T18:23:32;5.30;99.90
41481;DHT22;27217;51.220;5.308;2022-12-07T18:25:58;5.10;99.90
41481;DHT22;27217;51.220;5.308;2022-12-07T18:28:25;5.10;99.90
41481;DHT22;27217;51.220;5.308;2022-12-07T18:30:53;5.00;99.90
41481;DHT22;27217;51.220;5.308;2022-12-07T18:33:19;5.20;99.90
41481;DHT22;27217;51.220;5.308;2022-12-07T18:35:46;5.50;99.90
41481;DHT22;27217;51.220;5.308;2022-12-07T18:38:16;5.60;99.90
41481;DHT22;27217;51.220;5.308;2022-12-07T18:40:43;5.40;99.90
41481;DHT22;27217;51.220;5.308;2022-12-07T18:43:09;5.30;99.90
41481;DHT22;27217;51.220;5.308;2022-12-07T18:45:37;5.40;99.90